Ford City, Pennsylvania
Current Conditions -  °F | °C
As of 1:15 AM on Sunday 21 Dec 2014 (Local Time) from KBTP Reporting Station
Broken Clouds Broken Clouds  
Wind Chill: 25°   Ceiling: 2800
Heat Index: 25°   Visibility: 10mi
Dew Point: 21°   Wind: 0mph
Humidity: 86%   Direction: NA
Pressure: 30.26"   Gusts: NA
Location:  40.77°N, 79.53°W
Report Text: KBTP 210615Z AUTO 00000KT 10SM BKN028 M04/M06 A3026 RMK AO1
Loading
Personal Weather Stations






























Interactive Weather Map New forecast layout! Learn more

10-Day Weather Forecast

Advertisements
Track Severe Weather on mobile